sensor_id;sensor_type;location;lat;lon;timestamp;P1;durP1;ratioP1;P2;durP2;ratioP2
13651;SDS011;6899;51.546;6.912;2022-07-29T00:00:38;3.55;;;1.88;;
13651;SDS011;6899;51.546;6.912;2022-07-29T00:03:06;4.28;;;1.63;;
13651;SDS011;6899;51.546;6.912;2022-07-29T00:05:33;1.88;;;1.10;;
13651;SDS011;6899;51.546;6.912;2022-07-29T00:08:01;4.53;;;1.90;;
13651;SDS011;6899;51.546;6.912;2022-07-29T00:10:28;4.63;;;1.50;;
13651;SDS011;6899;51.546;6.912;2022-07-29T00:12:55;2.70;;;1.55;;
13651;SDS011;6899;51.546;6.912;2022-07-29T00:15:22;1.83;;;1.52;;
13651;SDS011;6899;51.546;6.912;2022-07-29T00:17:49;2.38;;;1.85;;
13651;SDS011;6899;51.546;6.912;2022-07-29T00:20:16;4.32;;;1.77;;
13651;SDS011;6899;51.546;6.912;2022-07-29T00:22:44;3.17;;;1.70;;
13651;SDS011;6899;51.546;6.912;2022-07-29T00:25:12;2.75;;;1.70;;
13651;SDS011;6899;51.546;6.912;2022-07-29T00:27:39;3.20;;;1.90;;
13651;SDS011;6899;51.546;6.912;2022-07-29T00:30:06;4.72;;;2.00;;
13651;SDS011;6899;51.546;6.912;2022-07-29T00:32:34;4.68;;;2.10;;
13651;SDS011;6899;51.546;6.912;2022-07-29T00:35:01;3.80;;;2.00;;
13651;SDS011;6899;51.546;6.912;2022-07-29T00:37:45;5.18;;;1.98;;
13651;SDS011;6899;51.546;6.912;2022-07-29T00:40:14;4.13;;;1.90;;
13651;SDS011;6899;51.546;6.912;2022-07-29T00:42:41;2.45;;;1.45;;
13651;SDS011;6899;51.546;6.912;2022-07-29T00:45:09;4.25;;;1.85;;
13651;SDS011;6899;51.546;6.912;2022-07-29T00:47:36;3.33;;;1.73;;
13651;SDS011;6899;51.546;6.912;2022-07-29T00:50:03;5.80;;;1.90;;
13651;SDS011;6899;51.546;6.912;2022-07-29T00:52:32;2.60;;;1.73;;
13651;SDS011;6899;51.546;6.912;2022-07-29T00:55:00;4.25;;;1.63;;
13651;SDS011;6899;51.546;6.912;2022-07-29T00:57:30;5.28;;;1.50;;
13651;SDS011;6899;51.546;6.912;2022-07-29T00:59:57;2.92;;;1.73;;
13651;SDS011;6899;51.546;6.912;2022-07-29T01:02:24;4.22;;;1.90;;
13651;SDS011;6899;51.546;6.912;2022-07-29T01:04:51;4.63;;;1.83;;
13651;SDS011;6899;51.546;6.912;2022-07-29T01:07:20;2.92;;;1.85;;
13651;SDS011;6899;51.546;6.912;2022-07-29T01:09:47;3.83;;;2.25;;
13651;SDS011;6899;51.546;6.912;2022-07-29T01:12:15;6.20;;;1.95;;
13651;SDS011;6899;51.546;6.912;2022-07-29T01:14:46;5.65;;;2.33;;
13651;SDS011;6899;51.546;6.912;2022-07-29T01:17:18;3.92;;;1.92;;
13651;SDS011;6899;51.546;6.912;2022-07-29T01:19:52;5.18;;;2.13;;
13651;SDS011;6899;51.546;6.912;2022-07-29T01:22:28;7.50;;;2.20;;
13651;SDS011;6899;51.546;6.912;2022-07-29T01:25:05;5.43;;;1.77;;
13651;SDS011;6899;51.546;6.912;2022-07-29T01:27:51;4.15;;;1.80;;
13651;SDS011;6899;51.546;6.912;2022-07-29T01:30:34;6.10;;;2.08;;
13651;SDS011;6899;51.546;6.912;2022-07-29T01:33:06;3.22;;;1.70;;
13651;SDS011;6899;51.546;6.912;2022-07-29T01:35:57;2.65;;;1.63;;
13651;SDS011;6899;51.546;6.912;2022-07-29T01:38:27;2.28;;;1.60;;
13651;SDS011;6899;51.546;6.912;2022-07-29T01:40:57;9.80;;;2.15;;
13651;SDS011;6899;51.546;6.912;2022-07-29T01:43:31;5.75;;;1.60;;
13651;SDS011;6899;51.546;6.912;2022-07-29T01:46:04;6.43;;;1.75;;
13651;SDS011;6899;51.546;6.912;2022-07-29T01:48:38;4.43;;;1.77;;
13651;SDS011;6899;51.546;6.912;2022-07-29T01:51:10;7.30;;;2.10;;
13651;SDS011;6899;51.546;6.912;2022-07-29T01:53:42;3.20;;;1.50;;
13651;SDS011;6899;51.546;6.912;2022-07-29T01:56:16;3.65;;;2.03;;
13651;SDS011;6899;51.546;6.912;2022-07-29T01:58:46;3.45;;;1.77;;
13651;SDS011;6899;51.546;6.912;2022-07-29T02:01:16;3.78;;;1.83;;
13651;SDS011;6899;51.546;6.912;2022-07-29T02:03:45;4.85;;;2.13;;
13651;SDS011;6899;51.546;6.912;2022-07-29T02:06:14;3.05;;;1.75;;
13651;SDS011;6899;51.546;6.912;2022-07-29T02:08:45;3.60;;;1.70;;
13651;SDS011;6899;51.546;6.912;2022-07-29T02:11:15;3.15;;;1.80;;
13651;SDS011;6899;51.546;6.912;2022-07-29T02:13:42;3.65;;;1.83;;
13651;SDS011;6899;51.546;6.912;2022-07-29T02:16:11;3.75;;;2.05;;
13651;SDS011;6899;51.546;6.912;2022-07-29T02:18:40;4.25;;;1.80;;
13651;SDS011;6899;51.546;6.912;2022-07-29T02:21:09;4.13;;;1.90;;
13651;SDS011;6899;51.546;6.912;2022-07-29T02:23:38;8.20;;;2.13;;
13651;SDS011;6899;51.546;6.912;2022-07-29T02:26:05;2.60;;;1.48;;
13651;SDS011;6899;51.546;6.912;2022-07-29T02:28:34;3.60;;;1.70;;
13651;SDS011;6899;51.546;6.912;2022-07-29T02:31:02;1.85;;;1.35;;
13651;SDS011;6899;51.546;6.912;2022-07-29T02:33:31;4.93;;;1.67;;
13651;SDS011;6899;51.546;6.912;2022-07-29T02:36:00;1.88;;;1.50;;
13651;SDS011;6899;51.546;6.912;2022-07-29T02:38:28;4.85;;;1.80;;
13651;SDS011;6899;51.546;6.912;2022-07-29T02:41:17;3.97;;;1.83;;
13651;SDS011;6899;51.546;6.912;2022-07-29T02:43:47;3.72;;;1.80;;
13651;SDS011;6899;51.546;6.912;2022-07-29T02:46:16;4.28;;;1.70;;
13651;SDS011;6899;51.546;6.912;2022-07-29T02:48:48;3.70;;;1.52;;
13651;SDS011;6899;51.546;6.912;2022-07-29T02:51:25;2.22;;;1.70;;
13651;SDS011;6899;51.546;6.912;2022-07-29T02:53:55;3.63;;;1.50;;
13651;SDS011;6899;51.546;6.912;2022-07-29T02:56:25;2.63;;;1.50;;
13651;SDS011;6899;51.546;6.912;2022-07-29T02:58:54;1.75;;;1.48;;
13651;SDS011;6899;51.546;6.912;2022-07-29T03:01:25;3.38;;;2.15;;
13651;SDS011;6899;51.546;6.912;2022-07-29T03:03:56;4.05;;;1.73;;
13651;SDS011;6899;51.546;6.912;2022-07-29T03:06:27;4.05;;;1.75;;
13651;SDS011;6899;51.546;6.912;2022-07-29T03:08:55;2.92;;;1.85;;
13651;SDS011;6899;51.546;6.912;2022-07-29T03:11:23;2.80;;;1.50;;
13651;SDS011;6899;51.546;6.912;2022-07-29T03:13:51;5.50;;;1.95;;
13651;SDS011;6899;51.546;6.912;2022-07-29T03:16:19;4.07;;;1.83;;
13651;SDS011;6899;51.546;6.912;2022-07-29T03:18:48;6.07;;;2.10;;
13651;SDS011;6899;51.546;6.912;2022-07-29T03:21:16;2.67;;;1.70;;
13651;SDS011;6899;51.546;6.912;2022-07-29T03:23:44;3.63;;;1.85;;
13651;SDS011;6899;51.546;6.912;2022-07-29T03:26:11;2.25;;;1.45;;
13651;SDS011;6899;51.546;6.912;2022-07-29T03:28:39;4.43;;;1.63;;
13651;SDS011;6899;51.546;6.912;2022-07-29T03:31:06;3.67;;;1.40;;
13651;SDS011;6899;51.546;6.912;2022-07-29T03:33:33;2.03;;;1.58;;
13651;SDS011;6899;51.546;6.912;2022-07-29T03:36:00;1.90;;;1.25;;
13651;SDS011;6899;51.546;6.912;2022-07-29T03:38:27;5.32;;;1.60;;
13651;SDS011;6899;51.546;6.912;2022-07-29T03:40:58;4.97;;;1.98;;
13651;SDS011;6899;51.546;6.912;2022-07-29T03:43:29;3.10;;;1.80;;
13651;SDS011;6899;51.546;6.912;2022-07-29T03:46:00;5.40;;;1.40;;
13651;SDS011;6899;51.546;6.912;2022-07-29T03:48:30;4.10;;;1.50;;
13651;SDS011;6899;51.546;6.912;2022-07-29T03:51:00;4.32;;;1.73;;
13651;SDS011;6899;51.546;6.912;2022-07-29T03:53:28;5.22;;;1.77;;
13651;SDS011;6899;51.546;6.912;2022-07-29T03:55:56;2.20;;;1.90;;
13651;SDS011;6899;51.546;6.912;2022-07-29T03:58:28;3.08;;;1.85;;
13651;SDS011;6899;51.546;6.912;2022-07-29T04:00:58;4.38;;;1.90;;
13651;SDS011;6899;51.546;6.912;2022-07-29T04:03:25;3.30;;;1.90;;
13651;SDS011;6899;51.546;6.912;2022-07-29T04:06:02;5.53;;;1.70;;
13651;SDS011;6899;51.546;6.912;2022-07-29T04:08:31;4.68;;;1.60;;
13651;SDS011;6899;51.546;6.912;2022-07-29T04:11:00;2.75;;;1.55;;
13651;SDS011;6899;51.546;6.912;2022-07-29T04:13:27;1.77;;;1.63;;
13651;SDS011;6899;51.546;6.912;2022-07-29T04:15:54;4.13;;;1.73;;
13651;SDS011;6899;51.546;6.912;2022-07-29T04:18:21;2.53;;;1.63;;
13651;SDS011;6899;51.546;6.912;2022-07-29T04:20:48;3.28;;;1.85;;
13651;SDS011;6899;51.546;6.912;2022-07-29T04:23:15;2.90;;;1.98;;
13651;SDS011;6899;51.546;6.912;2022-07-29T04:25:43;1.90;;;1.67;;
13651;SDS011;6899;51.546;6.912;2022-07-29T04:28:11;4.82;;;1.90;;
13651;SDS011;6899;51.546;6.912;2022-07-29T04:30:39;3.53;;;2.03;;
13651;SDS011;6899;51.546;6.912;2022-07-29T04:33:06;4.25;;;2.00;;
13651;SDS011;6899;51.546;6.912;2022-07-29T04:35:34;6.25;;;2.83;;
13651;SDS011;6899;51.546;6.912;2022-07-29T04:38:02;7.95;;;3.25;;
13651;SDS011;6899;51.546;6.912;2022-07-29T04:40:30;11.65;;;3.33;;
13651;SDS011;6899;51.546;6.912;2022-07-29T04:42:58;7.15;;;3.25;;
13651;SDS011;6899;51.546;6.912;2022-07-29T04:45:26;9.90;;;3.90;;
13651;SDS011;6899;51.546;6.912;2022-07-29T04:47:53;10.02;;;4.20;;
13651;SDS011;6899;51.546;6.912;2022-07-29T04:50:20;7.78;;;2.85;;
13651;SDS011;6899;51.546;6.912;2022-07-29T04:52:48;5.47;;;3.30;;
13651;SDS011;6899;51.546;6.912;2022-07-29T04:55:14;7.10;;;3.97;;
13651;SDS011;6899;51.546;6.912;2022-07-29T04:57:41;7.32;;;3.38;;
13651;SDS011;6899;51.546;6.912;2022-07-29T05:00:09;11.88;;;5.18;;
13651;SDS011;6899;51.546;6.912;2022-07-29T05:02:37;8.65;;;4.45;;
13651;SDS011;6899;51.546;6.912;2022-07-29T05:05:04;8.63;;;4.50;;
13651;SDS011;6899;51.546;6.912;2022-07-29T05:07:32;6.20;;;3.20;;
13651;SDS011;6899;51.546;6.912;2022-07-29T05:09:59;8.02;;;4.07;;
13651;SDS011;6899;51.546;6.912;2022-07-29T05:12:26;7.43;;;4.35;;
13651;SDS011;6899;51.546;6.912;2022-07-29T05:14:53;7.28;;;4.07;;
13651;SDS011;6899;51.546;6.912;2022-07-29T05:17:20;7.40;;;4.65;;
13651;SDS011;6899;51.546;6.912;2022-07-29T05:19:48;7.07;;;4.15;;
13651;SDS011;6899;51.546;6.912;2022-07-29T05:22:16;9.88;;;4.60;;
13651;SDS011;6899;51.546;6.912;2022-07-29T05:24:43;5.80;;;3.80;;
13651;SDS011;6899;51.546;6.912;2022-07-29T05:27:10;5.22;;;4.35;;
13651;SDS011;6899;51.546;6.912;2022-07-29T05:29:37;6.57;;;3.90;;
13651;SDS011;6899;51.546;6.912;2022-07-29T05:32:04;5.25;;;4.43;;
13651;SDS011;6899;51.546;6.912;2022-07-29T05:34:31;4.50;;;4.03;;
13651;SDS011;6899;51.546;6.912;2022-07-29T05:36:59;8.25;;;4.47;;
13651;SDS011;6899;51.546;6.912;2022-07-29T05:39:26;6.18;;;4.05;;
13651;SDS011;6899;51.546;6.912;2022-07-29T05:41:53;5.75;;;3.53;;
13651;SDS011;6899;51.546;6.912;2022-07-29T05:44:20;9.43;;;3.92;;
13651;SDS011;6899;51.546;6.912;2022-07-29T05:46:47;4.97;;;3.45;;
13651;SDS011;6899;51.546;6.912;2022-07-29T05:49:14;9.70;;;4.72;;
13651;SDS011;6899;51.546;6.912;2022-07-29T05:51:41;6.50;;;4.13;;
13651;SDS011;6899;51.546;6.912;2022-07-29T05:54:09;6.38;;;4.60;;
13651;SDS011;6899;51.546;6.912;2022-07-29T05:56:36;6.80;;;4.75;;
13651;SDS011;6899;51.546;6.912;2022-07-29T05:59:03;5.65;;;3.92;;
13651;SDS011;6899;51.546;6.912;2022-07-29T06:01:30;7.68;;;3.60;;
13651;SDS011;6899;51.546;6.912;2022-07-29T06:03:57;5.95;;;4.13;;
13651;SDS011;6899;51.546;6.912;2022-07-29T06:06:24;6.72;;;4.60;;
13651;SDS011;6899;51.546;6.912;2022-07-29T06:08:51;7.45;;;4.13;;
13651;SDS011;6899;51.546;6.912;2022-07-29T06:11:19;7.05;;;4.65;;
13651;SDS011;6899;51.546;6.912;2022-07-29T06:13:46;7.45;;;4.80;;
13651;SDS011;6899;51.546;6.912;2022-07-29T06:16:13;6.03;;;4.07;;
13651;SDS011;6899;51.546;6.912;2022-07-29T06:18:40;8.88;;;3.70;;
13651;SDS011;6899;51.546;6.912;2022-07-29T06:21:07;5.38;;;3.83;;
13651;SDS011;6899;51.546;6.912;2022-07-29T06:23:36;4.63;;;3.53;;
13651;SDS011;6899;51.546;6.912;2022-07-29T06:26:03;5.43;;;4.57;;
13651;SDS011;6899;51.546;6.912;2022-07-29T06:28:32;5.95;;;4.32;;
13651;SDS011;6899;51.546;6.912;2022-07-29T06:30:59;7.03;;;3.72;;
13651;SDS011;6899;51.546;6.912;2022-07-29T06:33:26;4.63;;;4.22;;
13651;SDS011;6899;51.546;6.912;2022-07-29T06:35:54;5.15;;;4.00;;
13651;SDS011;6899;51.546;6.912;2022-07-29T06:38:21;7.70;;;5.53;;
13651;SDS011;6899;51.546;6.912;2022-07-29T06:40:48;6.78;;;3.72;;
13651;SDS011;6899;51.546;6.912;2022-07-29T06:43:27;5.72;;;3.88;;
13651;SDS011;6899;51.546;6.912;2022-07-29T06:45:58;7.18;;;4.70;;
13651;SDS011;6899;51.546;6.912;2022-07-29T06:48:26;7.35;;;3.80;;
13651;SDS011;6899;51.546;6.912;2022-07-29T06:50:53;7.05;;;3.58;;
13651;SDS011;6899;51.546;6.912;2022-07-29T06:53:20;7.50;;;3.70;;
13651;SDS011;6899;51.546;6.912;2022-07-29T06:55:47;4.03;;;3.40;;
13651;SDS011;6899;51.546;6.912;2022-07-29T06:58:14;8.40;;;4.15;;
13651;SDS011;6899;51.546;6.912;2022-07-29T07:00:42;10.73;;;4.90;;
13651;SDS011;6899;51.546;6.912;2022-07-29T07:03:11;4.13;;;3.40;;
13651;SDS011;6899;51.546;6.912;2022-07-29T07:05:38;6.10;;;4.43;;
13651;SDS011;6899;51.546;6.912;2022-07-29T07:08:05;6.90;;;4.28;;
13651;SDS011;6899;51.546;6.912;2022-07-29T07:10:33;4.43;;;3.75;;
13651;SDS011;6899;51.546;6.912;2022-07-29T07:13:00;5.93;;;3.72;;
13651;SDS011;6899;51.546;6.912;2022-07-29T07:15:27;9.23;;;4.55;;
13651;SDS011;6899;51.546;6.912;2022-07-29T07:17:54;5.82;;;4.35;;
13651;SDS011;6899;51.546;6.912;2022-07-29T07:20:23;6.30;;;3.42;;
13651;SDS011;6899;51.546;6.912;2022-07-29T07:22:50;3.83;;;3.05;;
13651;SDS011;6899;51.546;6.912;2022-07-29T07:25:17;3.97;;;3.55;;
13651;SDS011;6899;51.546;6.912;2022-07-29T07:27:44;6.40;;;3.40;;
13651;SDS011;6899;51.546;6.912;2022-07-29T07:30:12;5.40;;;3.42;;
13651;SDS011;6899;51.546;6.912;2022-07-29T07:32:39;5.50;;;3.85;;
13651;SDS011;6899;51.546;6.912;2022-07-29T07:35:07;8.55;;;4.40;;
13651;SDS011;6899;51.546;6.912;2022-07-29T07:37:36;6.25;;;4.55;;
13651;SDS011;6899;51.546;6.912;2022-07-29T07:40:05;3.92;;;3.30;;
13651;SDS011;6899;51.546;6.912;2022-07-29T07:42:33;6.45;;;3.08;;
13651;SDS011;6899;51.546;6.912;2022-07-29T07:45:00;6.60;;;4.05;;
13651;SDS011;6899;51.546;6.912;2022-07-29T07:47:27;3.97;;;3.58;;
13651;SDS011;6899;51.546;6.912;2022-07-29T07:49:54;6.47;;;3.65;;
13651;SDS011;6899;51.546;6.912;2022-07-29T07:52:21;6.07;;;4.70;;
13651;SDS011;6899;51.546;6.912;2022-07-29T07:54:49;6.82;;;4.00;;
13651;SDS011;6899;51.546;6.912;2022-07-29T07:57:16;4.00;;;3.47;;
13651;SDS011;6899;51.546;6.912;2022-07-29T07:59:43;6.50;;;4.68;;
13651;SDS011;6899;51.546;6.912;2022-07-29T08:02:10;4.55;;;3.03;;
13651;SDS011;6899;51.546;6.912;2022-07-29T08:04:37;4.80;;;4.10;;
13651;SDS011;6899;51.546;6.912;2022-07-29T08:07:06;4.47;;;3.38;;
13651;SDS011;6899;51.546;6.912;2022-07-29T08:09:34;6.20;;;4.88;;
13651;SDS011;6899;51.546;6.912;2022-07-29T08:12:03;12.48;;;4.68;;
13651;SDS011;6899;51.546;6.912;2022-07-29T08:14:31;9.85;;;3.75;;
13651;SDS011;6899;51.546;6.912;2022-07-29T08:16:58;7.43;;;3.70;;
13651;SDS011;6899;51.546;6.912;2022-07-29T08:19:25;7.25;;;4.20;;
13651;SDS011;6899;51.546;6.912;2022-07-29T08:21:52;7.53;;;4.53;;
13651;SDS011;6899;51.546;6.912;2022-07-29T08:24:19;9.05;;;4.68;;
13651;SDS011;6899;51.546;6.912;2022-07-29T08:27:19;6.22;;;3.67;;
13651;SDS011;6899;51.546;6.912;2022-07-29T08:29:46;28.33;;;17.70;;
13651;SDS011;6899;51.546;6.912;2022-07-29T08:32:14;15.05;;;10.40;;
13651;SDS011;6899;51.546;6.912;2022-07-29T08:34:41;7.93;;;5.47;;
13651;SDS011;6899;51.546;6.912;2022-07-29T08:37:09;7.18;;;5.15;;
13651;SDS011;6899;51.546;6.912;2022-07-29T08:39:36;10.23;;;5.30;;
13651;SDS011;6899;51.546;6.912;2022-07-29T08:42:03;8.93;;;5.40;;
13651;SDS011;6899;51.546;6.912;2022-07-29T08:44:32;7.78;;;5.40;;
13651;SDS011;6899;51.546;6.912;2022-07-29T08:47:00;9.75;;;6.40;;
13651;SDS011;6899;51.546;6.912;2022-07-29T08:49:27;7.15;;;4.88;;
13651;SDS011;6899;51.546;6.912;2022-07-29T08:51:54;6.50;;;5.07;;
13651;SDS011;6899;51.546;6.912;2022-07-29T08:54:23;6.78;;;6.07;;
13651;SDS011;6899;51.546;6.912;2022-07-29T08:56:51;9.93;;;7.60;;
13651;SDS011;6899;51.546;6.912;2022-07-29T09:01:47;13.77;;;6.38;;
13651;SDS011;6899;51.546;6.912;2022-07-29T09:04:15;9.85;;;7.32;;
13651;SDS011;6899;51.546;6.912;2022-07-29T09:06:43;8.68;;;5.75;;
13651;SDS011;6899;51.546;6.912;2022-07-29T09:09:11;8.20;;;6.05;;
13651;SDS011;6899;51.546;6.912;2022-07-29T09:11:39;7.95;;;5.65;;
13651;SDS011;6899;51.546;6.912;2022-07-29T09:14:07;8.20;;;5.30;;
13651;SDS011;6899;51.546;6.912;2022-07-29T09:16:49;5.53;;;4.65;;
13651;SDS011;6899;51.546;6.912;2022-07-29T09:19:21;6.93;;;5.43;;
13651;SDS011;6899;51.546;6.912;2022-07-29T09:21:50;6.47;;;5.15;;
13651;SDS011;6899;51.546;6.912;2022-07-29T09:24:24;6.15;;;4.85;;
13651;SDS011;6899;51.546;6.912;2022-07-29T09:26:52;6.60;;;4.80;;
13651;SDS011;6899;51.546;6.912;2022-07-29T09:29:19;10.60;;;6.20;;
13651;SDS011;6899;51.546;6.912;2022-07-29T09:31:49;8.23;;;5.78;;
13651;SDS011;6899;51.546;6.912;2022-07-29T09:34:17;5.53;;;4.97;;
13651;SDS011;6899;51.546;6.912;2022-07-29T09:36:49;8.60;;;5.50;;
13651;SDS011;6899;51.546;6.912;2022-07-29T09:39:27;8.15;;;5.43;;
13651;SDS011;6899;51.546;6.912;2022-07-29T09:41:55;6.60;;;5.03;;
13651;SDS011;6899;51.546;6.912;2022-07-29T09:44:26;8.48;;;5.00;;
13651;SDS011;6899;51.546;6.912;2022-07-29T09:46:58;14.73;;;6.25;;
13651;SDS011;6899;51.546;6.912;2022-07-29T09:49:31;10.48;;;5.40;;
13651;SDS011;6899;51.546;6.912;2022-07-29T09:52:05;7.95;;;5.82;;
13651;SDS011;6899;51.546;6.912;2022-07-29T09:54:34;8.18;;;5.90;;
13651;SDS011;6899;51.546;6.912;2022-07-29T09:57:04;8.48;;;5.82;;
13651;SDS011;6899;51.546;6.912;2022-07-29T09:59:34;7.13;;;4.78;;
13651;SDS011;6899;51.546;6.912;2022-07-29T10:02:02;11.63;;;5.03;;
13651;SDS011;6899;51.546;6.912;2022-07-29T10:04:38;9.88;;;5.57;;
13651;SDS011;6899;51.546;6.912;2022-07-29T10:07:06;8.75;;;5.35;;
13651;SDS011;6899;51.546;6.912;2022-07-29T10:09:33;8.45;;;5.10;;
13651;SDS011;6899;51.546;6.912;2022-07-29T10:12:07;7.40;;;4.63;;
13651;SDS011;6899;51.546;6.912;2022-07-29T10:14:39;7.15;;;4.53;;
13651;SDS011;6899;51.546;6.912;2022-07-29T10:17:09;6.13;;;4.75;;
13651;SDS011;6899;51.546;6.912;2022-07-29T10:19:37;6.45;;;4.50;;
13651;SDS011;6899;51.546;6.912;2022-07-29T10:22:05;6.05;;;4.75;;
13651;SDS011;6899;51.546;6.912;2022-07-29T10:24:33;6.53;;;4.80;;
13651;SDS011;6899;51.546;6.912;2022-07-29T10:27:02;6.35;;;4.53;;
13651;SDS011;6899;51.546;6.912;2022-07-29T10:29:32;5.25;;;3.60;;
13651;SDS011;6899;51.546;6.912;2022-07-29T10:32:08;6.38;;;4.13;;
13651;SDS011;6899;51.546;6.912;2022-07-29T10:35:00;7.07;;;4.63;;
13651;SDS011;6899;51.546;6.912;2022-07-29T10:37:39;6.82;;;4.80;;
13651;SDS011;6899;51.546;6.912;2022-07-29T10:40:33;6.38;;;4.22;;
13651;SDS011;6899;51.546;6.912;2022-07-29T10:43:35;8.13;;;3.92;;
13651;SDS011;6899;51.546;6.912;2022-07-29T10:46:06;8.77;;;5.32;;
13651;SDS011;6899;51.546;6.912;2022-07-29T10:48:35;9.73;;;4.88;;
13651;SDS011;6899;51.546;6.912;2022-07-29T10:51:05;6.07;;;4.97;;
13651;SDS011;6899;51.546;6.912;2022-07-29T10:53:49;4.47;;;3.95;;
13651;SDS011;6899;51.546;6.912;2022-07-29T10:56:31;6.68;;;4.75;;
13651;SDS011;6899;51.546;6.912;2022-07-29T11:01:53;5.90;;;3.90;;
13651;SDS011;6899;51.546;6.912;2022-07-29T11:07:25;7.40;;;4.75;;
13651;SDS011;6899;51.546;6.912;2022-07-29T11:12:52;7.32;;;4.63;;
13651;SDS011;6899;51.546;6.912;2022-07-29T11:15:20;5.53;;;4.25;;
13651;SDS011;6899;51.546;6.912;2022-07-29T11:20:35;5.78;;;4.07;;
13651;SDS011;6899;51.546;6.912;2022-07-29T11:23:26;6.13;;;3.80;;
13651;SDS011;6899;51.546;6.912;2022-07-29T11:26:17;5.30;;;3.55;;
13651;SDS011;6899;51.546;6.912;2022-07-29T11:32:07;5.00;;;3.33;;
13651;SDS011;6899;51.546;6.912;2022-07-29T11:34:44;8.70;;;3.85;;
13651;SDS011;6899;51.546;6.912;2022-07-29T11:37:16;5.05;;;4.05;;
13651;SDS011;6899;51.546;6.912;2022-07-29T11:42:50;5.72;;;4.03;;
13651;SDS011;6899;51.546;6.912;2022-07-29T11:48:19;5.50;;;3.65;;
13651;SDS011;6899;51.546;6.912;2022-07-29T11:50:51;5.70;;;3.42;;
13651;SDS011;6899;51.546;6.912;2022-07-29T11:53:19;5.00;;;3.38;;
13651;SDS011;6899;51.546;6.912;2022-07-29T11:56:01;5.60;;;3.03;;
13651;SDS011;6899;51.546;6.912;2022-07-29T11:59:01;6.20;;;3.35;;
13651;SDS011;6899;51.546;6.912;2022-07-29T12:01:53;7.55;;;3.40;;
13651;SDS011;6899;51.546;6.912;2022-07-29T12:04:21;5.68;;;3.30;;
13651;SDS011;6899;51.546;6.912;2022-07-29T12:06:49;5.88;;;3.50;;
13651;SDS011;6899;51.546;6.912;2022-07-29T12:09:16;5.10;;;3.28;;
13651;SDS011;6899;51.546;6.912;2022-07-29T12:11:46;5.07;;;3.08;;
13651;SDS011;6899;51.546;6.912;2022-07-29T12:14:26;4.60;;;3.13;;
13651;SDS011;6899;51.546;6.912;2022-07-29T12:16:53;6.95;;;3.38;;
13651;SDS011;6899;51.546;6.912;2022-07-29T12:19:20;6.38;;;3.30;;
13651;SDS011;6899;51.546;6.912;2022-07-29T12:21:50;5.47;;;3.60;;
13651;SDS011;6899;51.546;6.912;2022-07-29T12:24:18;6.43;;;3.30;;
13651;SDS011;6899;51.546;6.912;2022-07-29T12:26:50;8.23;;;3.40;;
13651;SDS011;6899;51.546;6.912;2022-07-29T12:29:17;5.28;;;2.70;;
13651;SDS011;6899;51.546;6.912;2022-07-29T12:31:45;4.95;;;3.00;;
13651;SDS011;6899;51.546;6.912;2022-07-29T12:34:13;5.00;;;3.60;;
13651;SDS011;6899;51.546;6.912;2022-07-29T12:36:42;6.57;;;3.22;;
13651;SDS011;6899;51.546;6.912;2022-07-29T12:39:10;6.20;;;3.20;;
13651;SDS011;6899;51.546;6.912;2022-07-29T12:41:37;6.10;;;3.20;;
13651;SDS011;6899;51.546;6.912;2022-07-29T12:44:06;7.00;;;3.45;;
13651;SDS011;6899;51.546;6.912;2022-07-29T12:46:33;7.00;;;3.15;;
13651;SDS011;6899;51.546;6.912;2022-07-29T12:49:00;3.95;;;2.85;;
13651;SDS011;6899;51.546;6.912;2022-07-29T12:51:30;5.47;;;3.00;;
13651;SDS011;6899;51.546;6.912;2022-07-29T12:54:05;7.45;;;3.30;;
13651;SDS011;6899;51.546;6.912;2022-07-29T12:56:33;4.43;;;2.83;;
13651;SDS011;6899;51.546;6.912;2022-07-29T12:59:00;4.50;;;2.85;;
13651;SDS011;6899;51.546;6.912;2022-07-29T13:01:39;7.68;;;3.40;;
13651;SDS011;6899;51.546;6.912;2022-07-29T13:04:06;9.27;;;3.65;;
13651;SDS011;6899;51.546;6.912;2022-07-29T13:06:35;5.40;;;2.72;;
13651;SDS011;6899;51.546;6.912;2022-07-29T13:09:11;5.30;;;2.80;;
13651;SDS011;6899;51.546;6.912;2022-07-29T13:11:40;7.70;;;3.47;;
13651;SDS011;6899;51.546;6.912;2022-07-29T13:14:09;5.00;;;3.00;;
13651;SDS011;6899;51.546;6.912;2022-07-29T13:19:32;3.45;;;2.75;;
13651;SDS011;6899;51.546;6.912;2022-07-29T13:22:05;6.05;;;3.03;;
13651;SDS011;6899;51.546;6.912;2022-07-29T13:24:33;4.53;;;2.83;;
13651;SDS011;6899;51.546;6.912;2022-07-29T13:27:00;4.55;;;2.88;;
13651;SDS011;6899;51.546;6.912;2022-07-29T13:29:27;4.30;;;2.53;;
13651;SDS011;6899;51.546;6.912;2022-07-29T13:31:55;4.40;;;3.08;;
13651;SDS011;6899;51.546;6.912;2022-07-29T13:34:22;6.13;;;3.28;;
13651;SDS011;6899;51.546;6.912;2022-07-29T13:36:49;4.97;;;2.83;;
13651;SDS011;6899;51.546;6.912;2022-07-29T13:39:16;6.03;;;3.50;;
13651;SDS011;6899;51.546;6.912;2022-07-29T13:41:43;6.35;;;3.28;;
13651;SDS011;6899;51.546;6.912;2022-07-29T13:44:10;7.07;;;3.80;;
13651;SDS011;6899;51.546;6.912;2022-07-29T13:46:36;4.75;;;3.40;;
13651;SDS011;6899;51.546;6.912;2022-07-29T13:49:05;4.65;;;3.03;;
13651;SDS011;6899;51.546;6.912;2022-07-29T13:51:31;8.15;;;3.60;;
13651;SDS011;6899;51.546;6.912;2022-07-29T13:53:59;5.43;;;3.30;;
13651;SDS011;6899;51.546;6.912;2022-07-29T13:56:25;6.90;;;3.50;;
13651;SDS011;6899;51.546;6.912;2022-07-29T13:58:52;6.40;;;3.45;;
13651;SDS011;6899;51.546;6.912;2022-07-29T14:01:19;4.72;;;3.20;;
13651;SDS011;6899;51.546;6.912;2022-07-29T14:03:46;4.90;;;3.45;;
13651;SDS011;6899;51.546;6.912;2022-07-29T14:06:14;4.53;;;3.40;;
13651;SDS011;6899;51.546;6.912;2022-07-29T14:08:41;6.15;;;3.17;;
13651;SDS011;6899;51.546;6.912;2022-07-29T14:11:08;7.78;;;3.70;;
13651;SDS011;6899;51.546;6.912;2022-07-29T14:13:35;6.57;;;3.38;;
13651;SDS011;6899;51.546;6.912;2022-07-29T14:16:04;7.30;;;3.90;;
13651;SDS011;6899;51.546;6.912;2022-07-29T14:18:32;4.22;;;3.10;;
13651;SDS011;6899;51.546;6.912;2022-07-29T14:20:59;5.45;;;3.25;;
13651;SDS011;6899;51.546;6.912;2022-07-29T14:23:27;6.00;;;3.25;;
13651;SDS011;6899;51.546;6.912;2022-07-29T14:25:54;3.78;;;3.33;;
13651;SDS011;6899;51.546;6.912;2022-07-29T14:28:21;5.10;;;3.25;;
13651;SDS011;6899;51.546;6.912;2022-07-29T14:30:48;5.38;;;3.40;;
13651;SDS011;6899;51.546;6.912;2022-07-29T14:33:15;7.22;;;3.60;;
13651;SDS011;6899;51.546;6.912;2022-07-29T14:35:43;6.00;;;4.10;;
13651;SDS011;6899;51.546;6.912;2022-07-29T14:38:10;5.70;;;3.83;;
13651;SDS011;6899;51.546;6.912;2022-07-29T14:40:39;5.70;;;3.30;;
13651;SDS011;6899;51.546;6.912;2022-07-29T14:43:06;3.67;;;2.70;;
13651;SDS011;6899;51.546;6.912;2022-07-29T14:45:33;6.70;;;3.42;;
13651;SDS011;6899;51.546;6.912;2022-07-29T14:48:00;6.63;;;3.53;;
13651;SDS011;6899;51.546;6.912;2022-07-29T14:50:27;6.22;;;3.67;;
13651;SDS011;6899;51.546;6.912;2022-07-29T14:52:54;9.18;;;3.90;;
13651;SDS011;6899;51.546;6.912;2022-07-29T14:55:21;5.60;;;3.25;;
13651;SDS011;6899;51.546;6.912;2022-07-29T14:57:49;4.97;;;3.45;;
13651;SDS011;6899;51.546;6.912;2022-07-29T15:00:16;3.88;;;3.15;;
13651;SDS011;6899;51.546;6.912;2022-07-29T15:02:45;4.95;;;3.70;;
13651;SDS011;6899;51.546;6.912;2022-07-29T15:05:13;7.05;;;3.97;;
13651;SDS011;6899;51.546;6.912;2022-07-29T15:07:40;3.33;;;2.80;;
13651;SDS011;6899;51.546;6.912;2022-07-29T15:10:07;6.97;;;4.65;;
13651;SDS011;6899;51.546;6.912;2022-07-29T15:12:34;5.60;;;4.20;;
13651;SDS011;6899;51.546;6.912;2022-07-29T15:15:03;7.40;;;4.53;;
13651;SDS011;6899;51.546;6.912;2022-07-29T15:17:30;6.28;;;3.92;;
13651;SDS011;6899;51.546;6.912;2022-07-29T15:19:57;4.38;;;3.50;;
13651;SDS011;6899;51.546;6.912;2022-07-29T15:22:24;3.75;;;3.25;;
13651;SDS011;6899;51.546;6.912;2022-07-29T15:24:51;5.25;;;3.53;;
13651;SDS011;6899;51.546;6.912;2022-07-29T15:27:18;6.50;;;3.80;;
13651;SDS011;6899;51.546;6.912;2022-07-29T15:29:45;4.38;;;3.08;;
13651;SDS011;6899;51.546;6.912;2022-07-29T15:32:14;7.60;;;4.47;;
13651;SDS011;6899;51.546;6.912;2022-07-29T15:34:41;5.50;;;3.85;;
13651;SDS011;6899;51.546;6.912;2022-07-29T15:37:08;4.57;;;3.70;;
13651;SDS011;6899;51.546;6.912;2022-07-29T15:39:35;4.78;;;3.53;;